Raritan, Illinois
Current Conditions -  °F | °C
As of 2:55 PM on Thursday 18 Dec 2014 (Local Time) from KMQB Reporting Station
Overcast Overcast  
Wind Chill: 28°   Ceiling: 4900
Heat Index: 28°   Visibility: 10mi
Dew Point: 22°   Wind: 0mph
Humidity: 78%   Direction: NA
Pressure: 30.26"   Gusts: NA
Location:  40.7°N, 90.83°W
Report Text: KMQB 182055Z AUTO 00000KT 10SM BKN049 OVC065 M02/M05 A3026 RMK AO2 T10221055
Loading
Personal Weather Stations






























Interactive Weather Map New forecast layout! Learn more

10-Day Weather Forecast

Advertisements
Track Severe Weather on mobile